createdAt,value
2022-09-21T00:01:27.668Z,102355.03
2022-09-21T00:04:29.424Z,102349.81
2022-09-21T00:07:30.904Z,102351.66
2022-09-21T00:10:32.912Z,102351.72
2022-09-21T00:13:37.382Z,102357.03
2022-09-21T00:16:40.486Z,102358.00
2022-09-21T00:19:42.140Z,102353.66
2022-09-21T00:22:44.193Z,102354.59
2022-09-21T00:25:45.717Z,102365.19
2022-09-21T00:28:47.553Z,102359.13
2022-09-21T00:31:49.086Z,102353.94
2022-09-21T00:34:52.021Z,102362.91
2022-09-21T00:37:53.562Z,102360.34
2022-09-21T00:40:55.046Z,102364.00
2022-09-21T00:44:18.464Z,102361.47
2022-09-21T00:47:26.743Z,102360.69
2022-09-21T00:50:28.448Z,102356.34
2022-09-21T00:53:32.106Z,102361.69
2022-09-21T00:56:36.790Z,102366.16
2022-09-21T00:59:40.111Z,102359.19
2022-09-21T01:02:41.899Z,102358.41
2022-09-21T01:05:43.510Z,102363.78
2022-09-21T01:08:52.744Z,102365.63
2022-09-21T01:12:00.395Z,102363.91
2022-09-21T01:15:16.852Z,102359.50
2022-09-21T01:18:30.368Z,102363.16
2022-09-21T01:21:40.252Z,102363.19
2022-09-21T01:24:59.928Z,102366.75
2022-09-21T01:28:08.516Z,102367.72
2022-09-21T01:31:18.183Z,102366.00
2022-09-21T01:34:30.417Z,102361.66
2022-09-21T01:37:42.503Z,102370.50
2022-09-21T01:40:50.353Z,102376.66
2022-09-21T01:43:57.567Z,102373.19
2022-09-21T01:47:02.561Z,102369.72
2022-09-21T01:50:08.474Z,102368.88
2022-09-21T01:53:41.240Z,102373.31
2022-09-21T01:57:07.539Z,102368.97
2022-09-21T02:00:09.751Z,102372.56
2022-09-21T02:03:25.552Z,102373.47
2022-09-21T02:06:29.038Z,102369.13
2022-09-21T02:09:31.201Z,102370.09
2022-09-21T02:12:33.179Z,102372.78
2022-09-21T02:16:07.908Z,102370.16
2022-09-21T02:19:31.829Z,102370.22
2022-09-21T02:22:38.033Z,102372.94
2022-09-21T02:25:45.316Z,102373.03
2022-09-21T02:29:07.747Z,102374.81
2022-09-21T02:32:27.633Z,102367.81
2022-09-21T02:36:13.963Z,102372.28
2022-09-21T02:39:25.076Z,102366.19
2022-09-21T02:42:31.447Z,102374.16
2022-09-21T02:45:40.255Z,102373.31
2022-09-21T02:48:49.401Z,102376.88
2022-09-21T02:51:53.768Z,102369.81
2022-09-21T02:54:56.636Z,102376.94
2022-09-21T02:58:03.244Z,102377.81
2022-09-21T03:01:07.724Z,102379.66
2022-09-21T03:04:10.087Z,102378.81
2022-09-21T03:07:11.608Z,102382.34
2022-09-21T03:10:13.157Z,102383.22
2022-09-21T03:13:15.088Z,102380.56
2022-09-21T03:16:16.717Z,102384.16
2022-09-21T03:19:18.243Z,102384.16
2022-09-21T03:22:21.299Z,102389.47
2022-09-21T03:25:22.965Z,102385.13
2022-09-21T03:28:24.580Z,102391.34
2022-09-21T03:31:26.142Z,102393.16
2022-09-21T03:34:27.694Z,102393.22
2022-09-21T03:37:31.152Z,102402.97
2022-09-21T03:40:33.634Z,102400.38
2022-09-21T03:43:35.352Z,102401.25
2022-09-21T03:46:36.887Z,102401.31
2022-09-21T03:49:38.974Z,102388.97
2022-09-21T03:52:41.340Z,102397.84
2022-09-21T03:55:43.302Z,102399.66
2022-09-21T03:58:44.933Z,102397.06
2022-09-21T04:01:46.703Z,102405.06
2022-09-21T04:04:48.259Z,102402.47
2022-09-21T04:07:50.162Z,102410.44
2022-09-21T04:10:51.724Z,102405.25
2022-09-21T04:13:56.921Z,102395.63
2022-09-21T04:16:58.720Z,102399.13
2022-09-21T04:20:00.975Z,102394.69
2022-09-21T04:23:02.496Z,102392.94
2022-09-21T04:26:04.111Z,102394.69
2022-09-21T04:29:06.585Z,102400.91
2022-09-21T04:32:08.284Z,102397.41
2022-09-21T04:35:10.782Z,102396.56
2022-09-21T04:38:13.684Z,102399.22
2022-09-21T04:41:16.122Z,102407.16
2022-09-21T04:44:20.552Z,102400.09
2022-09-21T04:47:23.934Z,102405.31
2022-09-21T04:50:25.744Z,102408.91
2022-09-21T04:53:27.504Z,102407.75
2022-09-21T04:56:29.103Z,102406.53
2022-09-21T04:59:30.656Z,102403.63
2022-09-21T05:02:32.197Z,102405.25
2022-09-21T05:05:33.735Z,102407.78
2022-09-21T05:08:53.925Z,102408.72
2022-09-21T05:11:55.797Z,102404.38
2022-09-21T05:14:57.556Z,102408.91
2022-09-21T05:17:59.143Z,102413.41
2022-09-21T05:21:02.207Z,102418.25
2022-09-21T05:24:03.895Z,102414.78
2022-09-21T05:27:06.433Z,102416.59
2022-09-21T05:30:10.262Z,102428.16
2022-09-21T05:33:16.345Z,102428.28
2022-09-21T05:36:24.169Z,102428.94
2022-09-21T05:39:26.028Z,102424.50
2022-09-21T05:42:27.889Z,102428.13
2022-09-21T05:45:29.969Z,102431.75
2022-09-21T05:48:40.359Z,102430.94
2022-09-21T05:51:54.721Z,102431.91
2022-09-21T05:55:26.925Z,102439.03
2022-09-21T05:58:52.487Z,102446.97
2022-09-21T06:02:18.760Z,102442.50
2022-09-21T06:05:20.936Z,102445.16
2022-09-21T06:08:22.689Z,102438.03
2022-09-21T06:11:24.440Z,102439.75
2022-09-21T06:14:26.634Z,102442.31
2022-09-21T06:17:28.259Z,102450.19
2022-09-21T06:20:29.892Z,102451.88
2022-09-21T06:23:31.487Z,102455.38
2022-09-21T06:26:33.096Z,102456.22
2022-09-21T06:29:34.632Z,102459.72
2022-09-21T06:32:36.293Z,102457.03
2022-09-21T06:35:37.886Z,102461.38
2022-09-21T06:38:39.513Z,102452.56
2022-09-21T06:41:41.267Z,102456.91
2022-09-21T06:44:42.879Z,102459.41
2022-09-21T06:47:48.350Z,102457.53
2022-09-21T06:50:50.868Z,102458.28
2022-09-21T06:53:56.865Z,102458.16
2022-09-21T06:57:00.179Z,102459.81
2022-09-21T07:00:02.239Z,102455.25
2022-09-21T07:03:03.962Z,102456.91
2022-09-21T07:06:06.595Z,102461.13
2022-09-21T07:12:29.834Z,102464.22
2022-09-21T07:15:32.944Z,102461.28
2022-09-21T07:18:42.634Z,102467.97
2022-09-21T07:21:44.993Z,102466.63
2022-09-21T07:24:46.652Z,102466.25
2022-09-21T07:27:48.248Z,102471.13
2022-09-21T07:30:50.052Z,102469.84
2022-09-21T07:33:57.088Z,102474.84
2022-09-21T07:36:58.732Z,102468.38
2022-09-21T07:40:02.996Z,102475.22
2022-09-21T07:43:04.723Z,102474.13
2022-09-21T07:46:07.997Z,102473.97
2022-09-21T07:49:11.708Z,102474.66
2022-09-21T07:52:13.795Z,102471.81
2022-09-21T07:55:15.604Z,102476.00
2022-09-21T07:58:35.861Z,102482.00
2022-09-21T08:01:40.486Z,102480.94
2022-09-21T08:04:42.080Z,102480.75
2022-09-21T08:07:43.638Z,102478.81
2022-09-21T08:10:45.183Z,102483.03
2022-09-21T08:13:47.355Z,102484.63
2022-09-21T08:16:49.333Z,102481.66
2022-09-21T08:19:51.015Z,102481.47
2022-09-21T08:22:53.723Z,102479.47
2022-09-21T08:26:01.751Z,102484.53
2022-09-21T08:29:03.903Z,102483.41
2022-09-21T08:32:05.760Z,102481.44
2022-09-21T08:35:09.027Z,102486.41
2022-09-21T08:38:10.980Z,102482.63
2022-09-21T08:41:30.940Z,102478.84
2022-09-21T08:44:41.283Z,102491.84
2022-09-21T08:47:45.656Z,102488.06
2022-09-21T08:50:54.372Z,102485.09
2022-09-21T08:54:02.324Z,102489.16
2022-09-21T08:57:05.751Z,102487.94
2022-09-21T09:00:14.669Z,102487.53
2022-09-21T09:03:46.049Z,102484.56
2022-09-21T09:06:57.255Z,102483.25
2022-09-21T09:10:17.186Z,102494.38
2022-09-21T09:13:18.644Z,102497.53
2022-09-21T09:16:34.824Z,102495.38
2022-09-21T09:19:51.712Z,102501.09
2022-09-21T09:23:14.174Z,102500.69
2022-09-21T09:26:24.943Z,102494.97
2022-09-21T09:29:46.923Z,102491.00
2022-09-21T09:33:06.312Z,102494.94
2022-09-21T09:36:12.656Z,102495.28
2022-09-21T09:39:16.168Z,102493.88
2022-09-21T09:42:36.028Z,102500.44
2022-09-21T09:45:55.631Z,102496.44
2022-09-21T09:49:17.317Z,102499.34
2022-09-21T09:52:18.928Z,102493.94
2022-09-21T09:55:34.418Z,102494.88
2022-09-21T09:58:57.660Z,102495.72
2022-09-21T10:02:03.178Z,102503.66
2022-09-21T10:05:06.531Z,102497.22
2022-09-21T10:08:48.519Z,102496.03
2022-09-21T10:11:51.393Z,102500.19
2022-09-21T10:14:56.602Z,102498.09
2022-09-21T10:18:16.731Z,102511.00
2022-09-21T10:21:37.065Z,102500.72
2022-09-21T10:24:40.761Z,102503.06
2022-09-21T10:27:47.435Z,102502.09
2022-09-21T10:30:49.355Z,102499.16
2022-09-21T10:33:54.617Z,102500.75
2022-09-21T10:36:59.133Z,102496.06
2022-09-21T10:40:01.676Z,102496.69
2022-09-21T10:43:04.264Z,102502.59
2022-09-21T10:46:06.045Z,102495.44
2022-09-21T10:49:17.401Z,102495.47
2022-09-21T10:52:23.594Z,102487.31
2022-09-21T10:55:28.197Z,102490.59
2022-09-21T10:58:30.955Z,102484.31
2022-09-21T11:01:32.669Z,102485.25
2022-09-21T11:04:53.316Z,102479.09
2022-09-21T11:08:07.066Z,102482.97
2022-09-21T11:11:30.593Z,102485.13
2022-09-21T11:14:59.425Z,102478.59
2022-09-21T11:18:11.678Z,102483.72
2022-09-21T11:21:17.662Z,102476.53
2022-09-21T11:24:46.927Z,102482.66
2022-09-21T11:28:13.510Z,102476.34
2022-09-21T11:31:32.476Z,102481.72
2022-09-21T11:34:40.350Z,102481.06
2022-09-21T11:38:04.676Z,102478.28
2022-09-21T11:41:25.098Z,102487.47
2022-09-21T11:44:55.328Z,102482.97
2022-09-21T11:48:20.053Z,102474.88
2022-09-21T11:51:38.722Z,102475.09
2022-09-21T11:55:06.225Z,102470.97
2022-09-21T11:58:21.333Z,102471.50
2022-09-21T12:01:40.188Z,102473.66
2022-09-21T12:04:55.754Z,102475.28
2022-09-21T12:08:35.126Z,102473.47
2022-09-21T12:12:05.700Z,102471.78
2022-09-21T12:15:11.771Z,102473.34
2022-09-21T12:18:27.505Z,102468.72
2022-09-21T12:21:34.053Z,102468.56
2022-09-21T12:24:43.122Z,102463.06
2022-09-21T12:27:50.361Z,102456.03
2022-09-21T12:31:00.648Z,102454.19
2022-09-21T12:34:10.838Z,102445.03
2022-09-21T12:37:18.888Z,102452.66
2022-09-21T12:40:25.289Z,102453.72
2022-09-21T12:43:43.429Z,102447.50
2022-09-21T12:46:53.015Z,102449.66
2022-09-21T12:50:01.762Z,102444.69
2022-09-21T12:53:04.458Z,102445.09
2022-09-21T12:56:10.720Z,102434.84
2022-09-21T12:59:44.531Z,102440.72
2022-09-21T13:02:54.767Z,102434.38
2022-09-21T13:06:41.052Z,102433.44
2022-09-21T13:09:46.217Z,102429.31
2022-09-21T13:12:54.836Z,102415.88
2022-09-21T13:15:59.262Z,102418.81
2022-09-21T13:19:17.323Z,102422.72
2022-09-21T13:22:26.995Z,102417.88
2022-09-21T13:25:32.557Z,102411.69
2022-09-21T13:29:00.319Z,102409.81
2022-09-21T13:32:14.167Z,102416.06
2022-09-21T13:35:51.096Z,102415.75
2022-09-21T13:38:52.588Z,102402.88
2022-09-21T13:42:04.642Z,102406.25
2022-09-21T13:45:14.859Z,102405.38
2022-09-21T13:48:26.127Z,102409.97
2022-09-21T13:51:33.260Z,102404.72
2022-09-21T13:54:37.914Z,102407.28
2022-09-21T13:57:48.274Z,102403.44
2022-09-21T14:00:49.833Z,102402.78
2022-09-21T14:03:59.289Z,102404.91
2022-09-21T14:07:06.023Z,102396.50
2022-09-21T14:10:10.105Z,102398.81
2022-09-21T14:13:25.460Z,102393.88
2022-09-21T14:16:57.742Z,102390.63
2022-09-21T14:19:59.955Z,102396.00
2022-09-21T14:23:14.946Z,102390.19
2022-09-21T14:26:36.433Z,102386.38
2022-09-21T14:29:53.190Z,102387.00
2022-09-21T14:33:00.958Z,102381.13
2022-09-21T14:36:08.961Z,102381.59
2022-09-21T14:39:25.011Z,102382.13
2022-09-21T14:42:28.936Z,102380.03
2022-09-21T14:45:36.519Z,102373.34
2022-09-21T14:48:54.275Z,102371.22
2022-09-21T14:52:13.477Z,102368.13
2022-09-21T14:55:47.455Z,102367.47
2022-09-21T14:59:23.348Z,102365.13
2022-09-21T15:02:29.404Z,102356.72
2022-09-21T15:05:48.641Z,102353.69
2022-09-21T15:09:43.260Z,102347.25
2022-09-21T15:12:55.424Z,102354.44
2022-09-21T15:16:02.509Z,102353.38
2022-09-21T15:19:18.125Z,102347.69
2022-09-21T15:22:22.370Z,102350.13
2022-09-21T15:25:27.872Z,102344.53
2022-09-21T15:28:57.976Z,102352.53
2022-09-21T15:31:59.120Z,102345.22
2022-09-21T15:35:02.290Z,102345.22
2022-09-21T15:38:04.434Z,102342.50
2022-09-21T15:41:09.627Z,102353.28
2022-09-21T15:44:26.555Z,102350.06
2022-09-21T15:47:30.113Z,102344.75
2022-09-21T15:50:32.038Z,102340.78
2022-09-21T15:53:39.859Z,102340.25
2022-09-21T15:56:44.481Z,102336.94
2022-09-21T15:59:47.383Z,102344.34
2022-09-21T16:03:16.843Z,102345.53
2022-09-21T16:06:27.678Z,102353.06
2022-09-21T16:09:38.800Z,102346.06
2022-09-21T16:12:43.039Z,102340.88
2022-09-21T16:16:00.790Z,102338.31
2022-09-21T16:19:02.467Z,102341.09
2022-09-21T16:22:04.857Z,102342.16
2022-09-21T16:25:25.547Z,102338.84
2022-09-21T16:28:41.479Z,102342.69
2022-09-21T16:31:46.324Z,102341.31
2022-09-21T16:34:53.215Z,102344.28
2022-09-21T16:37:58.852Z,102348.34
2022-09-21T16:41:02.437Z,102348.22
2022-09-21T16:44:04.235Z,102348.94
2022-09-21T16:47:12.838Z,102348.78
2022-09-21T16:50:19.007Z,102349.78
2022-09-21T16:53:21.819Z,102354.16
2022-09-21T16:56:23.417Z,102356.69
2022-09-21T16:59:25.860Z,102349.31
2022-09-21T17:02:27.466Z,102351.78
2022-09-21T17:05:29.067Z,102346.25
2022-09-21T17:08:31.960Z,102345.00
2022-09-21T17:11:33.721Z,102347.41
2022-09-21T17:14:36.815Z,102347.25
2022-09-21T17:17:38.659Z,102349.72
2022-09-21T17:20:43.792Z,102344.06
2022-09-21T17:23:45.411Z,102343.06
2022-09-21T17:26:47.111Z,102342.75
2022-09-21T17:29:49.882Z,102343.31
2022-09-21T17:32:52.232Z,102330.44
2022-09-21T17:35:55.238Z,102343.34
2022-09-21T17:38:58.117Z,102342.28
2022-09-21T17:42:04.114Z,102349.13
2022-09-21T17:45:28.590Z,102346.31
2022-09-21T17:48:33.890Z,102341.84
2022-09-21T17:51:54.748Z,102340.66
2022-09-21T17:54:57.292Z,102343.19
2022-09-21T17:58:07.802Z,102340.19
2022-09-21T18:01:18.613Z,102346.25
2022-09-21T18:04:20.547Z,102348.63
2022-09-21T18:07:23.584Z,102344.66
2022-09-21T18:10:26.227Z,102348.69
2022-09-21T18:13:44.559Z,102351.78
2022-09-21T18:16:59.103Z,102349.47
2022-09-21T18:20:10.535Z,102347.22
2022-09-21T18:23:22.360Z,102353.66
2022-09-21T18:26:25.027Z,102353.84
2022-09-21T18:29:41.096Z,102356.84
2022-09-21T18:32:58.390Z,102354.75
2022-09-21T18:36:14.740Z,102357.81
2022-09-21T18:39:35.295Z,102361.78
2022-09-21T18:42:40.448Z,102356.94
2022-09-21T18:45:57.671Z,102354.63
2022-09-21T18:49:06.306Z,102352.25
2022-09-21T18:52:26.380Z,102361.47
2022-09-21T18:55:32.833Z,102358.22
2022-09-21T18:58:34.789Z,102355.91
2022-09-21T19:01:36.896Z,102356.09
2022-09-21T19:04:38.808Z,102350.22
2022-09-21T19:08:20.033Z,102347.88
2022-09-21T19:11:43.825Z,102346.38
2022-09-21T19:15:02.399Z,102343.13
2022-09-21T19:18:15.072Z,102341.72
2022-09-21T19:21:31.628Z,102341.06
2022-09-21T19:24:45.328Z,102339.59
2022-09-21T19:27:50.865Z,102348.69
2022-09-21T19:31:00.480Z,102347.97
2022-09-21T19:34:14.487Z,102347.47
2022-09-21T19:37:16.123Z,102351.22
2022-09-21T19:40:20.021Z,102348.72
2022-09-21T19:43:48.735Z,102352.63
2022-09-21T19:47:06.517Z,102356.34
2022-09-21T19:50:18.348Z,102363.63
2022-09-21T19:53:39.789Z,102366.59
2022-09-21T19:57:08.225Z,102354.47
2022-09-21T20:00:13.892Z,102353.81
2022-09-21T20:03:31.252Z,102357.84
2022-09-21T20:06:44.706Z,102360.97
2022-09-21T20:10:04.241Z,102351.47
2022-09-21T20:13:21.996Z,102357.91
2022-09-21T20:16:51.243Z,102356.38
2022-09-21T20:20:26.746Z,102358.47
2022-09-21T20:23:30.263Z,102356.00
2022-09-21T20:26:32.014Z,102358.88
2022-09-21T20:29:34.157Z,102365.28
2022-09-21T20:32:37.714Z,102359.34
2022-09-21T20:35:39.233Z,102361.28
2022-09-21T20:38:44.150Z,102368.56
2022-09-21T20:41:45.903Z,102361.63
2022-09-21T20:44:47.493Z,102368.09
2022-09-21T20:47:50.139Z,102362.94
2022-09-21T20:50:52.363Z,102365.81
2022-09-21T20:53:54.147Z,102366.19
2022-09-21T20:56:55.732Z,102367.31
2022-09-21T20:59:57.712Z,102364.84
2022-09-21T21:02:59.680Z,102372.16
2022-09-21T21:06:18.878Z,102365.25
2022-09-21T21:09:20.672Z,102365.41
2022-09-21T21:12:22.223Z,102362.91
2022-09-21T21:15:23.781Z,102369.22
2022-09-21T21:18:25.816Z,102357.81
2022-09-21T21:21:27.419Z,102363.34
2022-09-21T21:24:40.936Z,102372.38
2022-09-21T21:27:42.742Z,102364.53
2022-09-21T21:30:44.277Z,102368.22
2022-09-21T21:33:45.812Z,102363.88
2022-09-21T21:36:47.462Z,102371.19
2022-09-21T21:39:49.183Z,102372.25
2022-09-21T21:42:50.780Z,102371.56
2022-09-21T21:45:53.407Z,102367.22
2022-09-21T21:48:54.972Z,102365.63
2022-09-21T21:51:57.576Z,102364.88
2022-09-21T21:54:59.157Z,102364.16
2022-09-21T21:58:00.688Z,102360.72
2022-09-21T22:01:14.042Z,102362.63
2022-09-21T22:04:15.876Z,102360.22
2022-09-21T22:07:17.488Z,102357.69
2022-09-21T22:10:19.067Z,102358.59
2022-09-21T22:13:20.832Z,102352.47
2022-09-21T22:16:24.793Z,102358.38
2022-09-21T22:19:26.559Z,102348.91
2022-09-21T22:22:29.532Z,102358.91
2022-09-21T22:25:31.089Z,102363.59
2022-09-21T22:28:34.573Z,102357.69
2022-09-21T22:31:39.480Z,102360.75
2022-09-21T22:34:41.039Z,102360.25
2022-09-21T22:37:42.627Z,102365.84
2022-09-21T22:40:45.738Z,102360.88
2022-09-21T22:43:48.712Z,102372.66
2022-09-21T22:46:50.280Z,102372.88
2022-09-21T22:49:51.848Z,102366.09
2022-09-21T22:52:53.332Z,102373.41
2022-09-21T22:56:08.245Z,102366.50
2022-09-21T22:59:09.948Z,102365.88
2022-09-21T23:02:11.641Z,102363.44
2022-09-21T23:05:13.303Z,102362.75
2022-09-21T23:08:14.836Z,102352.38
2022-09-21T23:11:22.777Z,102353.34
2022-09-21T23:14:24.368Z,102349.97
2022-09-21T23:17:25.900Z,102350.06
2022-09-21T23:20:27.385Z,102347.56
2022-09-21T23:23:29.932Z,102352.97
2022-09-21T23:26:32.213Z,102348.69
2022-09-21T23:29:33.797Z,102347.97
2022-09-21T23:32:35.323Z,102347.19
2022-09-21T23:35:41.523Z,102343.75
2022-09-21T23:38:44.084Z,102342.97
2022-09-21T23:41:45.728Z,102345.66
2022-09-21T23:44:47.276Z,102337.88
2022-09-21T23:47:48.863Z,102341.47
2022-09-21T23:50:51.048Z,102340.72
2022-09-21T23:53:52.933Z,102335.53
2022-09-21T23:56:54.547Z,102337.34
2022-09-21T23:59:56.098Z,102336.53
